Terminal Aerodrome Forecast
Issued by NWS

Current Version | Previous Version | Text Only | Print | Product List | Glossary On
Versions: 1 2 3 4 5 6 7 8 9 10 11 12 13 14
000
FTUS46 KMTR 021120
TAFSTS
TAF
KSTS 021120Z 0212/0312 VRB03KT P6SM OVC010
     FM021800 19003KT P6SM SCT012
     FM022000 19008KT P6SM SKC
     FM030400 VRB03KT P6SM SKC
     FM030700 VRB03KT P6SM OVC010=

USA.gov is the U.S. government's official web portal to all federal, state and local government web resources and services.